Date,TemperatureHighF,TemperatureAvgF,TemperatureLowF,DewpointHighF,DewpointAvgF,DewpointLowF,HumidityHigh,HumidityAvg,HumidityLow,PressureMaxIn,PressureMinIn,WindSpeedMaxMPH,WindSpeedAvgMPH,GustSpeedMaxMPH,PrecipitationSumIn
2014-1-19,51.6,46.5,40.5,-3.1,-7.1,-11.8,10,10,10,29.92,29.91,4,1,7,0.00
2014-1-20,60.6,43.3,30.4,3.8,-9.6,-19.6,10,10,10,30.38,29.86,20,8,26,0.00
2014-1-21,31.5,21.7,9.5,-18.9,-26.4,-35.9,10,10,10,30.51,30.12,19,6,21,0.00
2014-1-22,47.7,31.6,19.8,-6.2,-18.7,-27.9,10,10,10,30.46,30.11,17,6,25,0.00
2014-1-23,21.6,12.7,7.2,-26.5,-33.4,-37.8,10,10,10,30.82,30.45,21,7,21,0.00
2014-1-24,50.2,27.7,7.2,-4.2,-21.7,-37.8,10,10,10,30.70,29.97,15,6,18,0.00
2014-1-25,62.2,46.5,34.9,5.0,-7.1,-16.1,10,10,10,30.11,29.89,14,4,15,0.00
2014-1-26,67.1,45.7,27.3,8.8,-7.7,-22.0,10,10,10,30.21,29.74,26,7,34,0.00
2014-1-27,29.1,17.5,13.5,-22.4,-29.6,-32.8,10,10,10,30.50,30.19,24,10,28,0.00
2014-1-28,32.5,19.0,6.6,-17.9,-28.4,-38.2,10,10,10,30.50,30.32,8,2,11,0.00
2014-1-29,49.8,31.1,12.9,-4.5,-19.0,-33.2,10,10,10,30.33,29.89,17,7,24,0.00
2014-1-30,53.2,39.6,32.0,-1.9,-12.4,-18.3,10,10,10,29.95,29.68,20,8,28,0.00
2014-1-31,35.8,26.5,23.2,-3.1,-12.8,-23.0,30,18,10,29.99,29.88,20,9,21,0.00
2014-2-1,29.5,25.9,21.9,-2.6,-15.1,-26.2,29,16,10,30.26,29.83,16,7,16,0.00
2014-2-2,33.1,22.0,15.4,-17.5,-26.1,-31.3,10,10,10,30.39,30.24,14,6,16,0.00
2014-2-3,43.5,27.2,11.8,-9.4,-22.1,-34.1,11,10,10,30.31,30.10,11,4,14,0.00
2014-2-4,32.5,26.1,14.0,-1.7,-11.0,-29.1,27,20,10,30.26,29.93,15,7,22,0.00
2014-2-5,14.5,8.0,3.0,-30.1,-37.0,-41.0,12,10,10,30.65,30.27,18,10,23,0.00
2014-2-6,17.2,8.9,3.4,-29.8,-36.4,-40.7,10,10,10,30.64,30.42,10,4,11,0.00
2014-2-7,18.9,13.8,7.9,-28.6,-32.6,-37.2,10,10,10,30.43,30.17,8,3,11,0.00
2014-2-8,30.0,25.6,18.5,-1.3,-10.5,-29.0,27,20,10,30.18,30.03,8,3,11,0.00
2014-2-9,28.4,24.0,15.3,0.3,-17.3,-31.4,29,16,10,30.38,30.14,13,6,15,0.00
2014-2-10,22.1,14.9,9.5,-22.2,-28.2,-33.5,18,12,10,30.46,30.36,11,6,14,0.00
2014-2-11,31.3,17.4,5.7,-18.9,-29.7,-38.9,10,10,10,30.44,30.22,7,3,8,0.00
2014-2-12,40.5,26.8,12.2,-9.0,-21.2,-33.8,17,11,10,30.22,30.00,13,4,15,0.00
2014-2-13,54.0,36.8,24.8,-1.3,-7.9,-16.5,29,15,10,30.00,29.76,8,2,8,0.00
2014-2-14,54.9,41.6,30.2,-0.6,-8.7,-19.7,18,11,10,30.13,29.70,20,6,21,0.00
2014-2-15,66.0,42.1,27.5,7.9,-10.1,-21.7,13,10,10,30.12,29.89,16,5,23,0.00
2014-2-16,61.3,45.1,28.9,4.3,-5.3,-15.3,23,12,10,30.13,29.78,12,4,13,0.00
2014-2-17,66.4,52.2,43.5,8.2,-2.6,-9.4,11,10,10,30.12,29.74,23,7,23,0.00
2014-2-18,72.1,54.9,41.9,12.6,-0.6,-10.6,10,10,10,30.05,29.79,17,6,24,0.00
2014-2-19,59.9,50.3,36.3,38.4,0.2,-15.0,45,14,10,30.04,29.52,11,4,13,0.00
2014-2-20,61.0,48.9,34.5,41.2,8.2,-16.4,50,23,10,30.01,29.35,24,10,28,0.00
2014-2-21,60.8,38.3,0.0,3.8,-13.1,-23.7,10,10,10,30.02,29.78,13,3,13,0.00
2014-2-22,67.5,47.3,34.7,9.0,-6.5,-16.2,10,10,10,29.92,29.80,14,5,16,0.00
2014-2-23,48.9,35.3,24.8,-5.2,-15.8,-23.9,10,10,10,30.25,29.92,21,10,23,0.00
2014-2-24,52.2,34.6,19.9,-2.7,-16.3,-27.7,10,10,10,30.23,29.99,11,4,12,0.00
2014-2-25,32.7,26.2,18.1,-17.8,-22.8,-29.1,10,10,10,30.43,30.15,17,8,20,0.00
2014-2-26,39.2,24.2,8.8,-12.7,-24.4,-36.5,10,10,10,30.40,30.00,15,5,19,0.00
2014-2-27,50.9,34.4,15.6,-3.7,-16.5,-31.1,10,10,10,30.03,29.73,13,5,14,0.00
2014-2-28,50.5,40.5,34.9,2.2,-10.3,-16.1,22,11,10,29.93,29.59,8,3,13,0.00
2014-3-1,38.3,23.3,10.9,1.8,-15.9,-34.8,26,17,10,30.24,29.92,17,9,20,0.00
2014-3-2,10.8,6.9,3.9,-34.9,-37.9,-40.0,11,10,10,30.42,30.22,17,10,21,0.00
2014-3-3,25.5,11.2,-1.8,-23.4,-34.6,-44.8,11,10,10,30.47,30.15,13,4,19,0.00
2014-3-4,39.0,25.5,8.8,-12.9,-23.4,-36.5,10,10,10,30.16,29.91,11,5,13,0.00
2014-3-5,44.4,34.2,27.0,-8.7,-16.0,-22.3,16,10,10,30.22,29.93,10,4,15,0.00
2014-3-6,49.8,35.9,27.5,2.6,-6.0,-13.6,30,18,10,30.20,29.88,11,4,14,0.00
2014-3-7,61.7,47.2,37.8,4.6,-6.1,-13.9,12,10,10,29.98,29.71,17,8,21,0.00
2014-3-8,43.9,34.3,28.8,-9.1,-16.5,-20.8,10,10,10,30.29,29.97,17,8,23,0.00
2014-3-9,62.8,42.8,20.8,5.4,-9.9,-27.0,12,10,10,30.27,29.99,11,4,13,0.00
2014-3-10,46.6,42.9,39.4,-7.0,-9.9,-12.6,10,10,10,29.98,29.88,6,4,10,0.00
2014-3-11,77.2,55.0,37.9,32.8,12.2,-13.7,59,26,10,30.52,29.85,25,12,30,29.62
2014-3-12,60.4,45.6,33.6,3.6,-7.6,-16.0,12,10,10,30.73,30.51,23,7,28,0.00
2014-3-13,71.8,52.8,32.4,12.3,-2.3,-18.0,10,10,10,30.62,30.29,14,5,17,0.00
2014-3-14,71.6,56.8,43.5,12.2,0.8,-9.4,10,10,10,30.45,30.25,16,5,17,0.00
2014-3-15,75.4,54.6,39.2,20.7,1.8,-12.7,28,12,10,30.45,30.18,14,4,17,0.00
2014-3-16,50.5,39.9,30.4,-4.0,-12.0,-19.6,14,10,10,30.66,30.35,26,12,27,0.00
2014-3-17,58.1,41.7,24.1,1.9,-10.8,-24.5,10,10,10,30.54,29.96,16,6,20,0.00
2014-3-18,66.9,51.6,38.1,8.6,-3.2,-13.6,10,10,10,30.32,29.81,18,9,21,0.00
2014-3-19,61.5,46.5,34.2,4.5,-7.1,-16.6,10,10,10,30.64,30.30,19,7,25,0.00
2014-3-20,74.3,55.2,37.4,14.3,-0.4,-14.1,10,10,10,30.58,30.30,14,5,19,0.00
2014-3-21,70.0,58.5,50.2,11.0,2.2,-4.2,10,10,10,30.56,30.15,14,8,21,0.00
2014-3-22,55.4,43.0,32.0,-0.2,-9.8,-18.3,10,10,10,30.86,30.55,17,10,21,0.00
2014-3-23,51.8,36.6,24.3,-3.0,-14.7,-24.4,10,10,10,30.94,30.69,15,6,18,0.00
2014-3-24,59.2,40.2,28.8,2.7,-12.0,-20.8,10,10,10,30.72,30.58,14,4,18,0.00
2014-3-25,53.8,40.6,29.3,-1.5,-11.6,-20.4,10,10,10,30.87,30.60,13,4,17,0.00
2014-3-26,52.3,41.6,34.9,12.3,-4.7,-16.1,28,15,10,30.59,30.07,23,11,26,0.00
2014-3-27,75.6,59.9,44.2,15.6,7.3,-8.8,19,12,10,30.31,29.88,22,11,28,0.00
2014-3-28,60.6,44.7,34.5,3.8,-8.5,-16.4,10,10,10,30.58,30.28,14,6,20,0.00
2014-3-29,70.2,50.1,31.1,11.1,-3.4,-17.9,17,11,10,30.75,30.58,6,3,10,0.00
2014-3-30,77.7,62.3,46.6,16.9,5.1,-7.0,10,10,10,30.59,30.20,25,12,29,0.00
2014-3-31,79.0,65.7,46.4,17.8,7.7,-7.2,10,10,10,30.48,30.09,19,10,26,0.00
2014-4-1,61.0,45.9,33.8,4.1,-7.6,-16.9,10,10,10,30.55,30.33,14,6,21,0.00
2014-4-2,81.7,58.9,0.0,30.5,4.9,-6.7,39,11,10,30.33,29.92,12,6,15,0.00
2014-4-3,57.6,48.1,0.0,39.6,13.1,-7.6,51,25,10,30.31,29.90,13,5,19,0.00
2014-4-4,61.3,45.5,33.8,4.3,-5.2,-15.5,19,12,10,30.51,30.31,17,5,20,0.00
2014-4-5,67.5,51.0,33.4,9.0,-3.7,-17.2,10,10,10,30.50,30.30,13,5,14,0.00
2014-4-6,62.4,53.1,46.4,5.2,-1.7,-7.2,14,10,10,30.38,30.17,8,3,14,0.00
2014-4-7,66.2,53.3,41.7,8.1,-1.4,-10.8,13,10,10,30.31,30.11,17,4,21,0.00
2014-4-8,70.0,54.1,41.7,11.0,-1.2,-10.8,10,10,10,30.47,30.31,19,8,24,0.00
2014-4-9,84.4,62.2,38.3,21.9,4.9,-13.4,10,10,10,30.46,30.15,15,6,21,0.00
2014-4-10,78.4,66.0,54.5,17.4,7.9,-0.9,10,10,10,30.32,30.05,21,8,21,0.00
2014-4-11,84.6,66.3,48.6,22.1,8.1,-5.5,10,10,10,30.37,30.20,11,5,13,0.00
2014-4-12,88.7,72.6,59.5,33.1,18.6,5.4,34,14,10,30.23,29.89,24,10,24,0.00
2014-4-13,82.2,61.9,37.0,20.3,5.6,-14.4,18,11,10,30.22,29.78,24,11,30,0.04
2014-4-14,52.3,39.4,31.5,5.5,-9.3,-18.2,32,13,10,30.54,30.20,21,9,24,0.00
2014-4-15,66.2,48.2,28.9,8.1,-5.8,-20.7,10,10,10,30.56,30.29,15,4,18,0.00
2014-4-16,75.0,59.1,46.9,14.8,2.6,-6.7,10,10,10,30.42,30.17,20,10,28,0.05
2014-4-17,52.7,44.1,37.6,-2.3,-9.0,-14.0,10,10,10,30.64,30.42,14,5,17,0.00
2014-4-18,75.2,54.4,32.5,14.9,2.7,-14.7,25,13,10,30.62,30.42,12,3,15,0.00
2014-4-19,81.3,66.7,53.1,19.6,8.4,-2.0,10,10,10,30.47,30.34,15,8,21,0.00
2014-4-20,75.9,66.6,60.6,15.5,8.3,3.8,10,10,10,30.43,30.31,9,5,16,0.00
2014-4-21,82.0,66.9,54.9,36.2,18.5,4.3,44,18,10,30.42,30.31,11,4,16,0.01
2014-4-22,81.7,65.4,50.4,19.9,7.4,-4.1,10,10,10,30.49,30.28,8,4,11,0.00
2014-4-23,87.4,71.0,55.8,24.3,11.7,0.1,10,10,10,30.29,29.87,20,9,27,0.00
2014-4-24,71.1,63.2,51.8,28.9,9.5,-3.0,34,13,10,30.26,29.93,17,7,26,0.01
2014-4-25,83.7,65.5,44.8,21.4,7.5,-8.4,10,10,10,30.31,30.11,12,5,17,0.00
2014-4-26,88.2,66.0,0.0,24.8,13.1,3.5,10,9,10,30.28,29.78,21,8,26,0.00
2014-4-27,84.4,72.5,61.2,36.0,18.1,4.2,29,13,10,29.89,29.62,17,8,27,0.01
2014-4-28,66.7,57.1,47.1,8.5,1.1,-6.6,10,10,10,29.99,29.74,16,8,22,0.12
2014-4-29,53.2,47.2,42.4,6.8,-4.6,-9.4,21,11,10,30.35,29.98,18,9,21,0.01
2014-4-30,62.6,50.5,41.4,5.3,-4.0,-11.1,10,10,10,30.46,30.35,17,7,19,0.00
2014-5-1,68.4,52.5,37.0,9.7,-2.5,-14.4,10,10,10,30.47,30.37,18,4,22,0.00
2014-5-2,79.5,58.5,37.2,18.2,2.1,-14.3,10,10,10,30.41,30.25,9,2,14,0.00
2014-5-3,95.4,71.7,49.1,30.3,12.3,-5.1,10,10,10,30.32,30.20,11,4,12,0.00
2014-5-4,104.0,81.8,62.8,36.8,20.0,5.4,10,10,10,30.25,30.03,18,6,24,0.00
2014-5-5,99.0,80.5,67.1,33.0,19.0,8.8,10,10,10,30.09,30.01,9,4,13,0.00
2014-5-6,99.3,79.6,62.8,33.3,18.2,5.4,10,10,10,30.07,29.84,16,6,21,0.00
2014-5-7,95.9,79.7,68.0,30.7,18.4,9.4,10,10,10,30.07,29.97,17,7,23,0.00
2014-5-8,89.8,75.3,63.7,26.0,16.0,6.1,17,11,10,30.22,30.05,13,5,20,0.00
2014-5-9,84.9,65.7,50.0,22.3,7.7,-4.4,10,10,10,30.33,30.19,11,4,17,0.00
2014-5-10,92.1,71.2,58.6,39.7,15.7,2.3,37,13,10,30.22,30.04,11,4,14,0.02
2014-5-11,89.4,78.1,67.5,41.0,25.7,16.2,38,16,10,30.12,29.93,17,8,24,0.00
2014-5-12,77.0,59.5,48.6,33.2,11.8,-5.5,34,17,10,30.52,30.01,12,6,17,0.01
2014-5-13,68.4,55.8,45.5,9.7,0.1,-7.9,10,10,10,30.66,30.51,14,6,21,0.00
2014-5-14,72.1,58.2,45.5,12.6,1.9,-7.9,10,10,10,30.66,30.51,15,3,17,0.00
2014-5-15,70.3,56.8,47.5,11.2,0.8,-6.3,10,10,10,30.60,30.48,11,3,14,0.00
2014-5-16,70.2,52.5,41.7,11.1,-2.5,-10.8,12,10,10,30.51,30.35,8,2,11,0.01
2014-5-17,72.5,54.8,41.7,12.9,5.4,-5.1,25,14,10,30.55,30.46,8,3,14,0.00
2014-5-19,46.9,29.8,17.1,27.3,20.7,14.3,92,72,43,30.38,30.21,9,3,9,0.00
2014-5-20,50.4,39.6,33.4,32.7,28.3,20.0,80,65,42,30.22,30.07,13,6,13,0.00
2014-5-21,55.2,37.3,27.0,24.4,20.3,13.9,78,55,20,30.37,30.20,6,3,6,0.00
2014-5-22,55.4,40.0,29.5,24.4,21.0,18.9,65,48,25,30.25,30.01,17,7,17,0.00
2014-5-23,59.2,43.4,33.4,33.5,28.6,22.7,82,58,33,30.06,29.93,11,6,11,0.00
2014-5-24,55.6,40.2,29.7,34.4,29.8,25.7,86,69,37,30.36,30.08,9,4,9,0.00
2014-5-25,66.9,51.6,46.0,47.4,36.0,32.2,59,56,40,30.26,29.37,11,6,11,29.94
2014-5-26,82.2,71.0,64.6,52.9,34.0,10.1,61,32,10,30.00,29.89,10,2,10,0.00
2014-5-27,85.1,71.3,61.9,47.3,29.5,11.8,49,26,10,29.97,29.89,6,1,8,0.00
2014-5-28,93.0,76.6,62.1,47.4,29.2,13.0,51,22,10,29.99,29.88,7,2,8,0.00
2014-5-29,93.0,78.6,64.8,48.5,28.3,12.7,49,19,10,29.95,29.85,7,2,11,0.00
2014-5-30,89.2,75.5,65.3,46.2,28.5,13.7,46,21,10,30.00,29.91,6,1,7,0.00
2014-5-31,87.8,75.8,65.5,49.5,29.6,14.3,51,23,10,30.02,29.89,8,2,10,0.00
2014-6-1,88.0,77.0,66.7,50.3,31.9,13.8,51,24,10,29.93,29.69,13,4,24,0.02
2014-6-2,93.0,77.2,66.2,49.1,32.7,16.6,51,25,10,29.97,29.75,14,2,14,0.00
2014-6-3,90.9,81.5,72.5,48.5,31.5,18.2,42,20,10,29.97,29.67,11,4,14,0.00
2014-6-4,97.0,83.9,74.8,41.6,24.1,14.8,28,11,10,29.76,29.65,11,3,18,0.01
2014-6-5,92.3,77.3,65.3,53.1,35.0,15.1,52,27,10,29.87,29.59,11,2,17,0.01
2014-6-6,81.1,72.5,67.3,54.9,42.3,17.7,57,37,10,29.95,29.77,7,2,11,0.00
2014-6-7,83.5,72.3,63.5,53.0,29.8,11.5,58,28,10,29.98,29.68,14,4,14,0.01
2014-6-8,82.8,70.5,63.0,41.5,26.6,10.0,45,23,10,30.01,29.85,6,2,10,0.00
2014-6-9,78.8,67.4,62.8,49.9,31.5,7.1,54,31,10,29.87,29.60,8,2,8,0.00
2014-6-10,82.8,70.6,62.1,42.5,24.1,8.5,45,21,10,29.85,29.70,11,5,14,0.00
2014-6-11,89.2,74.4,58.8,40.9,24.3,11.4,45,18,10,29.86,29.70,13,2,14,0.00
2014-6-12,81.1,70.6,62.2,47.6,25.1,5.0,52,23,10,30.03,29.74,10,3,14,0.04
2014-6-13,84.7,70.0,55.2,34.1,18.3,4.5,39,16,10,30.08,29.87,11,2,11,0.00
2014-6-14,90.3,78.4,66.9,26.4,18.1,8.6,15,10,10,29.89,29.60,18,8,20,0.00
2014-6-15,82.9,73.5,62.6,50.4,29.6,14.0,51,24,10,29.89,29.59,16,3,22,0.11
2014-6-16,90.5,81.5,73.6,52.2,32.3,18.8,46,21,10,29.90,29.73,18,7,20,0.04
2014-6-17,93.0,83.5,75.2,29.9,22.6,15.4,18,11,10,29.81,29.73,14,8,18,0.01
2014-6-18,93.6,83.2,75.0,36.6,24.3,16.6,24,12,10,29.85,29.78,15,6,15,0.00
2014-6-19,93.6,81.4,74.3,34.4,23.0,15.4,23,12,10,29.99,29.82,10,4,13,0.00
2014-6-20,95.5,83.1,72.1,49.6,30.7,18.1,42,18,10,30.05,29.91,10,2,11,0.00
2014-6-21,97.0,83.4,71.8,37.3,25.2,15.1,28,13,10,29.98,29.81,8,3,10,0.00
2014-6-22,96.3,81.1,65.3,42.3,26.3,11.4,42,15,10,29.93,29.72,14,3,22,0.32
2014-6-23,88.7,74.7,65.5,50.9,32.4,14.4,54,27,10,29.99,29.82,8,2,8,0.21
2014-6-24,87.6,71.8,64.2,45.9,34.2,13.0,46,29,10,30.03,29.96,14,1,17,0.86
2014-6-25,89.2,74.8,62.1,50.9,33.1,16.0,56,29,10,30.02,29.90,8,2,10,0.00
2014-6-26,83.3,76.1,70.7,47.3,30.4,15.2,42,21,10,29.96,29.78,12,3,16,0.01
2014-6-27,84.0,77.6,72.9,45.8,30.8,17.8,38,21,10,29.82,29.69,14,6,17,0.04
2014-6-28,80.8,72.7,66.2,46.6,35.4,13.2,44,28,10,29.91,29.69,13,3,19,0.18
2014-6-29,88.2,79.1,69.8,57.1,39.4,21.4,56,30,10,29.96,29.79,10,3,14,0.00
2014-6-30,95.5,85.0,75.9,39.6,28.8,20.6,27,14,10,29.81,29.70,16,6,19,0.00
2014-7-1,90.0,75.9,63.9,48.9,28.5,14.0,47,21,10,30.03,29.78,17,2,19,1.17
2014-7-2,82.9,72.0,60.8,20.8,13.5,4.9,19,11,10,30.17,30.03,8,3,13,0.00
2014-7-3,87.3,70.8,55.0,26.0,15.7,2.7,30,13,10,30.21,30.10,4,1,6,0.00
2014-7-4,90.3,76.6,63.5,26.4,16.0,6.0,10,10,10,30.22,30.08,10,2,12,0.00
2014-7-5,94.1,82.9,72.1,38.3,26.3,15.1,28,14,10,30.12,29.91,14,4,14,0.00
2014-7-6,99.9,85.6,74.1,33.7,26.3,17.1,20,12,10,29.95,29.81,8,3,12,0.00
2014-7-7,102.6,86.7,72.9,35.7,23.7,13.2,10,10,10,29.88,29.73,10,2,11,0.00
2014-7-8,90.9,79.2,71.6,26.9,18.0,12.2,10,10,10,30.03,29.78,11,4,13,0.00
2014-7-9,94.3,79.8,68.0,29.4,18.5,9.4,12,10,10,30.07,29.93,5,1,8,0.00
2014-7-10,87.3,75.4,64.8,45.0,26.5,12.9,45,20,10,30.09,29.93,10,4,18,1.67
2014-7-11,97.0,81.9,68.9,44.9,31.4,17.8,41,19,10,30.05,29.95,11,4,11,0.00
2014-7-12,96.6,84.3,73.4,31.2,21.9,13.6,10,10,10,30.06,29.94,8,3,11,0.00
2014-7-13,93.2,81.3,72.5,28.6,19.7,12.9,15,10,10,30.00,29.96,11,3,11,0.00
2014-7-14,95.5,78.8,69.8,46.3,25.7,10.8,39,16,10,30.13,29.96,8,2,18,0.01
2014-7-15,86.4,70.3,55.9,23.4,12.2,2.7,17,11,10,30.17,30.00,8,2,10,0.00
2014-7-16,70.7,65.2,60.4,31.3,14.0,5.3,32,15,10,30.07,30.00,4,1,6,0.07
2014-7-17,68.0,63.8,60.1,43.7,35.4,21.8,49,36,18,30.06,30.00,4,1,6,0.40
2014-7-18,78.6,68.0,61.2,44.2,26.9,8.1,51,27,10,30.07,29.97,14,2,14,0.01
2014-7-19,83.7,70.8,59.2,44.5,25.8,11.4,48,23,10,30.02,29.93,8,3,12,0.00
2014-7-20,92.1,77.7,65.5,38.7,27.8,15.8,37,18,10,29.97,29.84,13,5,13,0.00
2014-7-21,97.9,83.8,72.3,51.6,35.5,20.8,46,22,10,29.99,29.91,8,4,13,0.00
2014-7-22,102.0,87.4,76.5,52.5,35.5,21.3,43,19,10,30.05,29.96,7,2,8,0.00
2014-7-23,92.8,81.3,73.8,48.9,28.4,13.8,37,16,10,30.15,30.03,11,2,14,0.00
2014-7-24,94.6,80.3,67.8,36.9,25.4,13.4,31,14,10,30.09,29.91,9,2,11,0.00
2014-7-25,104.5,87.8,73.8,37.2,29.3,16.5,24,13,10,29.93,29.76,12,5,17,0.00
2014-7-26,106.2,89.2,76.3,38.4,25.6,15.8,10,10,10,29.87,29.78,9,3,12,0.00
2014-7-27,93.2,81.9,75.2,38.5,21.0,14.9,23,11,10,30.13,29.88,17,2,17,0.02
2014-7-28,92.5,77.3,64.6,28.1,16.6,6.8,10,10,10,30.25,30.10,8,2,10,0.00
2014-7-29,93.7,77.6,63.3,29.0,17.0,5.9,13,10,10,30.17,30.00,4,1,8,0.00
2014-7-30,71.8,69.0,63.7,45.1,26.9,9.7,44,24,10,30.09,30.02,5,1,7,0.19
2014-7-31,88.3,72.6,59.9,44.2,27.9,10.5,50,25,10,30.11,30.00,5,1,8,0.02
2014-8-1,69.6,68.6,67.5,23.8,15.2,10.3,19,13,10,30.05,30.04,2,0,3,0.00
2014-8-3,46.9,28.9,17.1,27.3,20.3,14.3,92,73,43,30.38,30.21,9,3,9,0.00
2014-8-4,50.4,39.9,34.0,32.7,28.5,21.4,80,65,42,30.23,30.08,13,6,13,0.00
2014-8-5,55.2,37.0,27.0,24.4,20.3,13.9,78,56,20,30.37,30.18,6,3,6,0.00
2014-8-6,55.4,39.7,29.5,23.6,20.8,18.9,65,48,25,30.26,30.02,17,7,17,0.00
2014-8-7,59.2,43.3,33.4,33.5,28.1,22.7,82,58,33,30.03,29.93,11,6,11,0.00
2014-8-8,55.6,40.2,29.7,34.4,29.8,25.7,86,69,37,30.36,30.03,9,4,9,0.00
2014-8-9,81.7,53.3,46.0,38.4,31.4,18.5,59,50,10,30.27,29.37,11,7,11,0.00
2014-8-10,90.5,77.9,68.4,52.6,33.0,14.1,53,25,10,30.06,29.93,10,2,11,0.28
2014-8-11,90.5,77.8,68.4,46.5,26.4,10.5,43,18,10,30.12,30.04,11,4,14,0.00
2014-8-12,89.6,73.9,60.1,25.9,15.8,4.6,24,11,10,30.16,30.02,8,1,11,0.00
2014-8-13,90.9,75.5,61.3,26.9,15.1,4.3,10,10,10,30.13,30.00,8,1,10,0.00
2014-8-14,92.3,79.0,67.1,27.9,17.8,8.8,10,10,10,30.05,29.90,11,3,12,0.00
2014-8-15,95.9,80.8,71.6,35.4,22.5,13.0,22,12,10,29.94,29.80,8,3,12,0.07
2014-8-16,99.5,83.8,72.9,39.6,27.7,15.1,29,14,10,29.89,29.82,9,2,10,0.00
2014-8-17,99.1,83.1,69.6,42.4,28.2,16.0,35,15,10,29.97,29.84,5,1,6,0.00
2014-8-18,96.4,80.0,67.3,46.5,29.5,14.7,43,19,10,30.02,29.76,16,2,19,1.10
2014-8-19,98.2,84.4,72.7,32.4,22.0,13.0,10,10,10,29.87,29.76,7,3,14,0.00
2014-8-20,95.0,84.3,73.8,30.0,23.6,15.5,17,11,10,29.86,29.78,11,4,17,0.00
2014-8-21,99.7,86.8,76.6,33.5,23.7,16.0,10,10,10,29.91,29.83,12,5,16,0.00
2014-8-22,102.9,88.4,77.4,36.0,25.0,16.6,10,10,10,29.91,29.83,11,4,13,0.00
2014-8-23,102.7,87.1,74.1,35.8,24.0,14.1,10,10,10,29.90,29.79,10,4,11,0.00
2014-8-24,102.2,87.8,76.1,35.4,24.5,15.6,10,10,10,29.89,29.80,10,4,16,0.00
2014-8-25,103.3,88.2,75.7,36.2,24.8,15.4,10,10,10,29.96,29.85,7,3,14,0.00
2014-8-26,98.6,82.9,71.6,32.7,20.8,12.2,10,10,10,30.09,29.97,10,2,10,0.00
2014-8-27,95.9,84.3,71.2,32.2,23.1,13.6,23,11,10,30.09,29.95,8,2,14,0.00
2014-8-28,90.1,78.2,68.5,41.4,22.0,13.3,35,13,10,29.96,29.83,7,2,9,0.50
2014-8-29,89.4,75.8,67.3,48.9,31.1,14.4,47,24,10,29.89,29.81,9,2,9,0.02
2014-8-30,97.0,80.0,65.3,50.1,31.3,15.2,48,21,10,29.94,29.84,4,1,7,0.00
2014-8-31,97.0,83.9,72.0,32.9,25.9,14.8,23,13,10,29.87,29.63,15,6,18,0.00
2014-9-1,90.3,76.4,65.5,42.7,22.6,9.6,34,15,10,29.87,29.73,18,4,26,0.01
2014-9-2,90.0,78.3,71.6,47.2,32.0,16.5,41,22,10,29.99,29.85,7,2,12,0.00
2014-9-3,96.3,83.3,72.0,40.4,29.1,19.7,30,15,10,29.92,29.78,11,5,16,0.08
2014-9-4,98.4,86.1,76.5,32.6,23.2,15.9,10,10,10,29.94,29.82,11,5,16,0.04
2014-9-5,84.0,75.5,61.5,23.4,16.0,5.3,23,11,10,30.20,29.94,15,5,15,0.04
2014-9-6,80.2,67.0,59.0,33.4,19.7,3.5,36,19,10,30.24,30.14,10,3,13,0.18
2014-9-7,84.0,67.9,53.1,21.7,12.0,-0.1,25,12,10,30.19,30.01,7,1,8,0.00
2014-9-8,90.3,76.6,63.1,41.5,23.7,5.7,39,16,10,30.04,29.83,10,4,14,0.00
2014-9-9,97.7,84.5,73.4,37.7,26.7,15.8,27,13,10,29.88,29.59,14,6,17,0.00
2014-9-10,83.8,73.2,63.0,38.2,17.4,7.0,29,13,10,29.98,29.57,14,6,16,0.00
2014-9-11,75.0,64.1,59.0,18.8,8.8,2.7,19,11,10,30.19,29.99,9,4,11,0.00
2014-9-12,59.0,54.5,51.3,19.6,1.8,-3.4,26,12,10,30.39,30.17,13,6,15,0.00
2014-9-13,69.8,55.5,41.4,10.8,1.5,-9.8,23,11,10,30.38,30.17,11,2,11,0.00
2014-9-14,81.0,67.0,52.3,19.3,10.3,-2.0,16,11,10,30.20,30.01,11,4,11,0.00
2014-9-15,82.9,80.1,70.3,28.6,19.0,13.4,21,10,10,30.18,30.00,8,6,8,0.00
2014-9-16,82.9,69.6,59.7,27.3,11.8,3.1,22,11,10,30.18,29.87,6,2,7,0.00
2014-9-17,83.8,69.4,67.5,27.3,25.9,15.5,22,20,10,29.87,29.67,2,1,4,0.00
2014-9-18,88.3,76.3,67.8,43.6,23.2,10.0,38,15,10,29.89,29.72,11,3,17,0.00
2014-9-19,77.9,72.5,59.9,42.3,24.8,3.2,53,19,10,29.88,29.79,7,3,9,0.00
2014-9-20,82.4,71.2,-17.0,33.4,29.4,-56.8,24,22,10,29.91,29.81,7,6,7,0.00
2014-9-21,81.7,77.3,66.6,19.9,16.8,8.3,12,10,10,30.13,29.91,7,4,8,0.00
2014-9-22,81.7,70.6,50.9,19.9,11.6,-3.6,13,10,10,30.19,30.04,7,3,7,0.00
2014-9-23,82.4,68.3,58.8,20.4,9.6,2.4,10,10,10,30.08,29.92,15,4,15,0.00
2014-9-24,79.3,67.0,58.1,32.9,16.5,4.6,37,16,10,30.09,29.97,12,4,13,0.01
2014-9-25,70.7,70.7,70.7,11.5,11.5,11.5,10,10,10,30.08,29.99,3,3,3,0.00
2014-9-26,70.7,70.7,70.7,11.5,11.5,11.5,10,10,10,30.04,29.93,3,3,3,0.00
2014-9-27,70.7,70.7,70.7,11.5,11.5,11.5,10,10,10,30.01,29.93,3,3,3,0.00
2014-9-30,0.0,0.0,0.0,99.9,99.9,99.9,10,10,10,29.80,29.56,0,0,0,0.00
2014-10-1,0.0,0.0,0.0,99.9,99.9,99.9,10,10,10,29.60,29.50,0,0,0,0.00
2014-10-2,73.0,33.7,0.0,99.9,51.4,3.1,10,10,10,29.81,29.53,11,3,11,0.00
2014-10-3,62.1,59.8,54.7,4.8,3.0,-0.9,10,10,10,30.12,29.81,16,5,16,0.00
2014-10-4,60.1,60.1,60.1,3.2,3.2,3.2,10,10,10,30.02,29.70,6,6,6,0.00
2014-10-5,68.0,61.1,60.1,9.3,4.0,3.2,10,10,10,29.74,29.64,12,7,12,0.00
2014-10-6,84.6,72.3,66.6,22.0,12.6,8.2,10,10,10,29.76,29.59,12,7,12,0.00